KOKC/OKC METAR and TAF weather

Enter ICAO airport designator
Station Type Date Time Source
KOKC METAR 2020/07/14 16:52 UTC NOAA

KOKC 141652Z 17013KT 10SM SCT130 SCT230 32/21 A2982 RMK AO2 SLP077 T03170206


Station Type Date Time Source
KOKC Decoded METAR 2020/07/14 16:52 UTC NOAA

WILL ROGERS WORLD AIRPORT, OK, United States (KOKC) 35-23N 97-36W 390M
Jul 14, 2020 - 12:52 PM EDT / 2020.07.14 1652 UTC
Wind: from the S (170 degrees) at 15 MPH (13 KT):0
Visibility: 10 mile(s):0
Sky conditions: partly cloudy
Temperature: 89.1 F (31.7 C)
Dew Point: 69.1 F (20.6 C)
Relative Humidity: 51%
Pressure (altimeter): 29.82 in. Hg (1009 hPa)
ob: KOKC 141652Z 17013KT 10SM SCT130 SCT230 32/21 A2982 RMK AO2 SLP077 T03170206
cycle: 17

Station Type Date Time Source
KOKC TAF 2020/07/14 18:30 UTC NOAA

TAF KOKC 141728Z 1418/1518 17014G21KT P6SM SCT120 SCT250
FM150400 15013KT P6SM BKN120 WS020/19045KT PROB30 1509/1513 4SM TSRA BKN050CB
FM151300 22012KT P6SM BKN250

Example: see airport list